createdAt,value
2023-07-19T00:00:33.713Z,46.25
2023-07-19T00:01:33.774Z,46.24
2023-07-19T00:02:33.834Z,46.24
2023-07-19T00:03:33.946Z,46.20
2023-07-19T00:04:33.882Z,46.21
2023-07-19T00:05:33.873Z,46.18
2023-07-19T00:06:33.921Z,46.15
2023-07-19T00:07:33.992Z,46.17
2023-07-19T00:08:33.984Z,46.15
2023-07-19T00:09:34.008Z,46.14
2023-07-19T00:10:34.033Z,46.15
2023-07-19T00:11:34.175Z,46.16
2023-07-19T00:12:42.580Z,46.21
2023-07-19T00:13:35.082Z,46.18
2023-07-19T00:14:34.167Z,46.26
2023-07-19T00:15:34.083Z,46.24
2023-07-19T00:16:34.273Z,46.29
2023-07-19T00:17:34.247Z,46.31
2023-07-19T00:18:34.109Z,46.32
2023-07-19T00:19:34.071Z,46.34
2023-07-19T00:20:34.029Z,46.42
2023-07-19T00:21:34.071Z,46.43
2023-07-19T00:22:34.047Z,46.50
2023-07-19T00:23:34.033Z,46.46
2023-07-19T00:24:34.025Z,46.54
2023-07-19T00:25:34.013Z,46.59
2023-07-19T00:26:34.029Z,46.55
2023-07-19T00:27:34.006Z,46.60
2023-07-19T00:28:33.979Z,46.64
2023-07-19T00:29:33.988Z,46.68
2023-07-19T00:30:34.017Z,46.71
2023-07-19T00:31:34.024Z,46.74
2023-07-19T00:32:34.083Z,46.74
2023-07-19T00:33:34.087Z,46.78
2023-07-19T00:34:34.199Z,46.77
2023-07-19T00:35:34.124Z,46.78
2023-07-19T00:36:34.172Z,46.80
2023-07-19T00:37:34.190Z,46.85
2023-07-19T00:38:34.209Z,46.86
2023-07-19T00:39:34.256Z,46.89
2023-07-19T00:40:34.309Z,46.88
2023-07-19T00:41:34.436Z,46.94
2023-07-19T00:42:34.476Z,46.94
2023-07-19T00:43:34.431Z,46.96
2023-07-19T00:44:34.423Z,46.95
2023-07-19T00:45:34.487Z,46.98
2023-07-19T00:46:34.448Z,47.01
2023-07-19T00:47:34.594Z,47.01
2023-07-19T00:48:34.532Z,47.03
2023-07-19T00:49:34.519Z,47.00
2023-07-19T00:50:34.400Z,47.00
2023-07-19T00:51:34.591Z,46.96
2023-07-19T00:52:34.433Z,46.96
2023-07-19T00:53:34.444Z,46.92
2023-07-19T00:54:34.576Z,46.96
2023-07-19T00:55:34.483Z,46.93
2023-07-19T00:56:34.459Z,46.90
2023-07-19T00:57:34.468Z,46.88
2023-07-19T00:58:34.601Z,46.86
2023-07-19T00:59:34.677Z,46.86
2023-07-19T01:00:34.580Z,46.83
2023-07-19T01:01:34.594Z,46.86
2023-07-19T01:02:34.813Z,46.88
2023-07-19T01:03:34.699Z,46.91
2023-07-19T01:04:34.730Z,46.93
2023-07-19T01:05:34.616Z,46.94
2023-07-19T01:06:34.743Z,46.90
2023-07-19T01:07:34.788Z,46.95
2023-07-19T01:08:34.785Z,46.94
2023-07-19T01:09:34.724Z,46.95
2023-07-19T01:10:34.663Z,46.97
2023-07-19T01:11:34.777Z,46.98
2023-07-19T01:12:34.794Z,46.98
2023-07-19T01:13:34.789Z,47.02
2023-07-19T01:14:34.784Z,47.02
2023-07-19T01:15:34.650Z,47.00
2023-07-19T01:16:34.718Z,47.03
2023-07-19T01:17:34.689Z,47.05
2023-07-19T01:18:34.666Z,47.06
2023-07-19T01:19:34.688Z,47.09
2023-07-19T01:20:34.637Z,47.06
2023-07-19T01:21:34.859Z,47.07
2023-07-19T01:22:34.825Z,47.10
2023-07-19T01:23:34.723Z,47.13
2023-07-19T01:24:34.679Z,47.12
2023-07-19T01:25:34.741Z,47.15
2023-07-19T01:26:34.677Z,47.14
2023-07-19T01:27:34.721Z,47.18
2023-07-19T01:28:34.714Z,47.18
2023-07-19T01:29:34.712Z,47.25
2023-07-19T01:30:34.720Z,47.22
2023-07-19T01:31:34.753Z,47.26
2023-07-19T01:32:34.799Z,47.25
2023-07-19T01:33:34.784Z,47.29
2023-07-19T01:34:34.732Z,47.30
2023-07-19T01:35:34.762Z,47.31
2023-07-19T01:36:34.745Z,47.34
2023-07-19T01:37:34.713Z,47.36
2023-07-19T01:38:34.734Z,47.38
2023-07-19T01:39:34.721Z,47.40
2023-07-19T01:40:34.736Z,47.41
2023-07-19T01:41:34.732Z,47.43
2023-07-19T01:42:34.758Z,47.43
2023-07-19T01:43:34.768Z,47.46
2023-07-19T01:44:34.756Z,47.46
2023-07-19T01:45:34.794Z,47.46
2023-07-19T01:46:34.772Z,47.49
2023-07-19T01:47:34.823Z,47.50
2023-07-19T01:48:34.752Z,47.42
2023-07-19T01:49:34.802Z,47.43
2023-07-19T01:50:34.844Z,47.38
2023-07-19T01:51:34.763Z,47.38
2023-07-19T01:52:34.786Z,47.36
2023-07-19T01:53:34.771Z,47.34
2023-07-19T01:54:34.776Z,47.29
2023-07-19T01:55:34.784Z,47.27
2023-07-19T01:56:34.779Z,47.29
2023-07-19T01:57:34.786Z,47.25
2023-07-19T01:58:34.774Z,47.22
2023-07-19T01:59:34.778Z,47.22
2023-07-19T02:00:34.745Z,47.21
2023-07-19T02:01:34.907Z,47.23
2023-07-19T02:02:34.937Z,47.24
2023-07-19T02:03:34.849Z,47.25
2023-07-19T02:04:34.804Z,47.27
2023-07-19T02:05:34.729Z,47.24
2023-07-19T02:06:34.759Z,47.24
2023-07-19T02:07:34.760Z,47.30
2023-07-19T02:08:34.735Z,47.32
2023-07-19T02:09:34.773Z,47.34
2023-07-19T02:10:34.790Z,47.37
2023-07-19T02:11:34.780Z,47.35
2023-07-19T02:12:34.735Z,47.36
2023-07-19T02:13:34.765Z,47.42
2023-07-19T02:14:34.728Z,47.43
2023-07-19T02:15:34.745Z,47.48
2023-07-19T02:16:34.696Z,47.49
2023-07-19T02:17:34.761Z,47.51
2023-07-19T02:18:34.677Z,47.50
2023-07-19T02:19:34.722Z,47.52
2023-07-19T02:20:34.681Z,47.55
2023-07-19T02:21:34.709Z,47.55
2023-07-19T02:22:34.727Z,47.55
2023-07-19T02:23:34.672Z,47.57
2023-07-19T02:24:34.669Z,47.55
2023-07-19T02:25:34.654Z,47.56
2023-07-19T02:26:34.678Z,47.58
2023-07-19T02:27:34.663Z,47.59
2023-07-19T02:28:34.683Z,47.61
2023-07-19T02:29:34.677Z,47.60
2023-07-19T02:30:34.698Z,47.62
2023-07-19T02:31:34.768Z,47.65
2023-07-19T02:32:34.668Z,47.66
2023-07-19T02:33:34.642Z,47.70
2023-07-19T02:34:34.654Z,47.72
2023-07-19T02:35:34.638Z,47.72
2023-07-19T02:36:34.646Z,47.71
2023-07-19T02:37:34.628Z,47.74
2023-07-19T02:38:34.646Z,47.72
2023-07-19T02:39:34.610Z,47.75
2023-07-19T02:40:34.636Z,47.75
2023-07-19T02:41:34.644Z,47.77
2023-07-19T02:42:34.626Z,47.75
2023-07-19T02:43:34.608Z,47.78
2023-07-19T02:44:34.592Z,47.79
2023-07-19T02:45:34.603Z,47.80
2023-07-19T02:46:35.095Z,47.83
2023-07-19T02:47:34.624Z,47.82
2023-07-19T02:48:34.604Z,47.84
2023-07-19T02:49:34.599Z,47.89
2023-07-19T02:50:34.617Z,47.88
2023-07-19T02:51:34.569Z,47.91
2023-07-19T02:52:34.600Z,47.90
2023-07-19T02:53:34.586Z,47.94
2023-07-19T02:54:34.561Z,47.96
2023-07-19T02:55:34.568Z,47.95
2023-07-19T02:56:34.582Z,48.01
2023-07-19T02:57:34.566Z,48.02
2023-07-19T02:58:34.565Z,47.97
2023-07-19T02:59:34.579Z,48.03
2023-07-19T03:00:34.625Z,48.04
2023-07-19T03:01:34.599Z,48.07
2023-07-19T03:02:34.596Z,48.09
2023-07-19T03:03:34.788Z,48.11
2023-07-19T03:04:34.523Z,48.10
2023-07-19T03:05:34.546Z,48.09
2023-07-19T03:06:34.536Z,48.08
2023-07-19T03:07:34.553Z,48.11
2023-07-19T03:08:34.552Z,48.11
2023-07-19T03:09:34.571Z,48.09
2023-07-19T03:10:34.541Z,48.11
2023-07-19T03:11:34.516Z,48.10
2023-07-19T03:12:34.513Z,48.11
2023-07-19T03:13:34.505Z,48.11
2023-07-19T03:14:34.534Z,48.12
2023-07-19T03:15:34.555Z,48.13
2023-07-19T03:16:34.562Z,48.13
2023-07-19T03:17:34.502Z,48.11
2023-07-19T03:18:34.515Z,48.13
2023-07-19T03:19:34.486Z,48.12
2023-07-19T03:20:34.491Z,48.09
2023-07-19T03:21:34.491Z,48.11
2023-07-19T03:22:34.541Z,48.11
2023-07-19T03:23:34.485Z,48.13
2023-07-19T03:24:34.524Z,48.12
2023-07-19T03:25:34.498Z,48.12
2023-07-19T03:26:34.480Z,48.13
2023-07-19T03:27:34.460Z,48.11
2023-07-19T03:28:34.484Z,48.12
2023-07-19T03:29:34.488Z,48.16
2023-07-19T03:30:34.534Z,48.17
2023-07-19T03:31:34.496Z,48.17
2023-07-19T03:32:34.560Z,48.17
2023-07-19T03:33:34.457Z,48.18
2023-07-19T03:34:34.453Z,48.22
2023-07-19T03:35:34.449Z,48.20
2023-07-19T03:36:34.486Z,48.21
2023-07-19T03:37:34.442Z,48.24
2023-07-19T03:38:34.490Z,48.24
2023-07-19T03:39:34.472Z,48.25
2023-07-19T03:40:34.494Z,48.22
2023-07-19T03:41:34.480Z,48.22
2023-07-19T03:42:34.474Z,48.24
2023-07-19T03:43:34.485Z,48.22
2023-07-19T03:44:34.484Z,48.24
2023-07-19T03:45:34.487Z,48.25
2023-07-19T03:46:34.536Z,48.27
2023-07-19T03:47:34.519Z,48.26
2023-07-19T03:48:34.576Z,48.25
2023-07-19T03:49:34.597Z,48.25
2023-07-19T03:50:34.476Z,48.23
2023-07-19T03:51:34.467Z,48.24
2023-07-19T03:52:34.511Z,48.23
2023-07-19T03:53:34.479Z,48.25
2023-07-19T03:54:34.512Z,48.24
2023-07-19T03:55:34.496Z,48.25
2023-07-19T03:56:34.475Z,48.22
2023-07-19T03:57:34.478Z,48.24
2023-07-19T03:58:34.536Z,48.21
2023-07-19T03:59:34.471Z,48.19
2023-07-19T04:00:34.494Z,48.18
2023-07-19T04:01:34.488Z,48.19
2023-07-19T04:02:34.529Z,48.21
2023-07-19T04:03:34.562Z,48.21
2023-07-19T04:04:34.499Z,48.21
2023-07-19T04:05:34.513Z,48.25
2023-07-19T04:06:34.501Z,48.21
2023-07-19T04:07:34.502Z,48.19
2023-07-19T04:08:34.490Z,48.22
2023-07-19T04:09:34.516Z,48.17
2023-07-19T04:10:34.490Z,48.20
2023-07-19T04:11:34.503Z,48.17
2023-07-19T04:12:34.478Z,48.17
2023-07-19T04:13:34.503Z,48.16
2023-07-19T04:14:34.538Z,48.15
2023-07-19T04:15:34.511Z,48.16
2023-07-19T04:16:34.538Z,48.16
2023-07-19T04:17:34.529Z,48.14
2023-07-19T04:18:34.514Z,48.18
2023-07-19T04:19:34.499Z,48.16
2023-07-19T04:20:34.531Z,48.16
2023-07-19T04:21:34.476Z,48.18
2023-07-19T04:22:34.585Z,48.18
2023-07-19T04:23:34.464Z,48.18
2023-07-19T04:24:34.513Z,48.20
2023-07-19T04:25:34.486Z,48.20
2023-07-19T04:26:34.474Z,48.21
2023-07-19T04:27:34.484Z,48.22
2023-07-19T04:28:34.496Z,48.23
2023-07-19T04:29:34.485Z,48.26
2023-07-19T04:30:34.471Z,48.23
2023-07-19T04:31:34.483Z,48.26
2023-07-19T04:32:34.555Z,48.34
2023-07-19T04:33:34.601Z,48.30
2023-07-19T04:34:34.506Z,48.35
2023-07-19T04:35:34.495Z,48.37
2023-07-19T04:36:34.483Z,48.40
2023-07-19T04:37:34.606Z,48.40
2023-07-19T04:38:34.481Z,48.43
2023-07-19T04:39:34.493Z,48.47
2023-07-19T04:40:34.516Z,48.47
2023-07-19T04:41:34.484Z,48.47
2023-07-19T04:42:34.471Z,48.47
2023-07-19T04:43:34.461Z,48.46
2023-07-19T04:44:34.465Z,48.50
2023-07-19T04:45:34.483Z,48.46
2023-07-19T04:46:34.624Z,48.50
2023-07-19T04:47:34.557Z,48.50
2023-07-19T04:48:34.483Z,48.50
2023-07-19T04:49:34.466Z,48.48
2023-07-19T04:50:34.502Z,48.50
2023-07-19T04:51:34.483Z,48.48
2023-07-19T04:52:34.481Z,48.51
2023-07-19T04:53:34.505Z,48.49
2023-07-19T04:54:34.496Z,48.47
2023-07-19T04:55:34.474Z,48.46
2023-07-19T04:56:34.503Z,48.48
2023-07-19T04:57:34.513Z,48.48
2023-07-19T04:58:34.478Z,48.51
2023-07-19T04:59:34.498Z,48.48
2023-07-19T05:00:34.504Z,48.50
2023-07-19T05:01:34.540Z,48.50
2023-07-19T05:02:34.555Z,48.48
2023-07-19T05:03:34.519Z,48.50
2023-07-19T05:04:34.522Z,48.52
2023-07-19T05:05:34.618Z,48.50
2023-07-19T05:06:34.512Z,48.51
2023-07-19T05:07:34.554Z,48.50
2023-07-19T05:08:34.562Z,48.51
2023-07-19T05:09:34.545Z,48.50
2023-07-19T05:10:34.538Z,48.47
2023-07-19T05:11:34.554Z,48.48
2023-07-19T05:12:34.557Z,48.45
2023-07-19T05:13:34.565Z,48.45
2023-07-19T05:14:34.569Z,48.49
2023-07-19T05:15:34.570Z,48.46
2023-07-19T05:16:34.673Z,48.45
2023-07-19T05:17:34.625Z,48.46
2023-07-19T05:18:34.593Z,48.47
2023-07-19T05:19:34.599Z,48.47
2023-07-19T05:20:34.592Z,48.47
2023-07-19T05:21:34.638Z,48.48
2023-07-19T05:22:34.786Z,48.53
2023-07-19T05:23:34.641Z,48.56
2023-07-19T05:24:34.622Z,48.61
2023-07-19T05:25:34.603Z,48.58
2023-07-19T05:26:34.645Z,48.63
2023-07-19T05:27:34.621Z,48.67
2023-07-19T05:28:34.612Z,48.70
2023-07-19T05:29:34.602Z,48.71
2023-07-19T05:30:34.626Z,48.71
2023-07-19T05:31:34.720Z,48.78
2023-07-19T05:32:34.669Z,48.82
2023-07-19T05:33:34.659Z,48.86
2023-07-19T05:34:34.641Z,48.87
2023-07-19T05:35:34.643Z,48.92
2023-07-19T05:36:34.640Z,48.94
2023-07-19T05:37:34.634Z,48.95
2023-07-19T05:38:34.662Z,48.99
2023-07-19T05:39:34.632Z,49.04
2023-07-19T05:40:34.659Z,49.03
2023-07-19T05:41:34.664Z,49.04
2023-07-19T05:42:34.651Z,49.07
2023-07-19T05:43:34.700Z,49.08
2023-07-19T05:44:34.666Z,49.07
2023-07-19T05:45:34.722Z,49.09
2023-07-19T05:46:34.691Z,49.11
2023-07-19T05:47:34.740Z,49.11
2023-07-19T05:48:34.729Z,49.12
2023-07-19T05:49:34.722Z,49.13
2023-07-19T05:50:34.731Z,49.13
2023-07-19T05:51:34.730Z,49.16
2023-07-19T05:52:34.725Z,49.12
2023-07-19T05:53:34.742Z,49.13
2023-07-19T05:54:34.770Z,49.07
2023-07-19T05:55:34.811Z,49.06
2023-07-19T05:56:34.748Z,49.10
2023-07-19T05:57:34.741Z,49.10
2023-07-19T05:58:34.753Z,49.08
2023-07-19T05:59:34.749Z,49.05
2023-07-19T06:00:34.757Z,48.98
2023-07-19T06:01:35.516Z,48.96
2023-07-19T06:02:47.769Z,48.88
2023-07-19T06:03:35.900Z,48.85
2023-07-19T06:04:34.820Z,48.81
2023-07-19T06:05:34.775Z,48.79
2023-07-19T06:06:34.821Z,48.74
2023-07-19T06:07:34.698Z,48.70
2023-07-19T06:08:34.726Z,48.73
2023-07-19T06:09:34.718Z,48.69
2023-07-19T06:10:34.697Z,48.72
2023-07-19T06:11:34.740Z,48.70
2023-07-19T06:12:34.699Z,48.60
2023-07-19T06:13:34.682Z,48.64
2023-07-19T06:14:34.668Z,48.70
2023-07-19T06:15:34.695Z,48.69
2023-07-19T06:16:34.653Z,48.71
2023-07-19T06:17:34.716Z,48.78
2023-07-19T06:18:34.670Z,48.81
2023-07-19T06:19:34.656Z,48.81
2023-07-19T06:20:34.643Z,48.87
2023-07-19T06:21:34.627Z,48.89
2023-07-19T06:22:34.664Z,48.87
2023-07-19T06:23:34.745Z,48.86
2023-07-19T06:24:34.632Z,48.88
2023-07-19T06:25:34.610Z,48.85
2023-07-19T06:26:34.584Z,48.80
2023-07-19T06:27:34.578Z,48.78
2023-07-19T06:28:34.636Z,48.76
2023-07-19T06:29:34.568Z,48.75
2023-07-19T06:30:34.575Z,48.67
2023-07-19T06:31:34.615Z,48.61
2023-07-19T06:32:34.596Z,48.54
2023-07-19T06:33:34.572Z,48.36
2023-07-19T06:34:34.553Z,48.00
2023-07-19T06:35:34.653Z,47.61
2023-07-19T06:36:34.550Z,47.35
2023-07-19T06:37:34.582Z,47.25
2023-07-19T06:38:34.643Z,47.17
2023-07-19T06:39:34.677Z,47.09
2023-07-19T06:40:34.710Z,46.87
2023-07-19T06:41:34.728Z,46.70
2023-07-19T06:42:34.788Z,46.47
2023-07-19T06:43:34.800Z,46.45
2023-07-19T06:44:34.799Z,46.52
2023-07-19T06:45:34.821Z,46.62
2023-07-19T06:46:34.889Z,46.78
2023-07-19T06:47:34.877Z,46.87
2023-07-19T06:48:34.855Z,46.88
2023-07-19T06:49:34.922Z,47.01
2023-07-19T06:50:34.931Z,47.08
2023-07-19T06:51:34.988Z,47.17
2023-07-19T06:52:34.975Z,47.32
2023-07-19T06:53:34.994Z,47.48
2023-07-19T06:54:35.015Z,47.63
2023-07-19T06:55:35.094Z,47.72
2023-07-19T06:56:35.121Z,47.82
2023-07-19T06:57:35.125Z,47.87
2023-07-19T06:58:35.168Z,47.95
2023-07-19T06:59:35.273Z,48.11
2023-07-19T07:00:35.347Z,48.18
2023-07-19T07:01:35.322Z,48.27
2023-07-19T07:02:35.361Z,48.42
2023-07-19T07:03:35.576Z,48.46
2023-07-19T07:04:35.444Z,48.49
2023-07-19T07:05:35.552Z,48.53
2023-07-19T07:06:35.533Z,48.41
2023-07-19T07:07:35.586Z,48.26
2023-07-19T07:08:35.619Z,48.02
2023-07-19T07:09:35.640Z,47.89
2023-07-19T07:10:35.696Z,47.79
2023-07-19T07:11:35.705Z,47.73
2023-07-19T07:12:35.756Z,47.55
2023-07-19T07:13:35.753Z,47.58
2023-07-19T07:14:35.793Z,47.72
2023-07-19T07:15:35.797Z,47.80
2023-07-19T07:16:35.894Z,48.00
2023-07-19T07:17:35.899Z,48.13
2023-07-19T07:18:35.910Z,48.25
2023-07-19T07:19:36.170Z,48.38
2023-07-19T07:20:35.966Z,48.46
2023-07-19T07:21:36.008Z,48.61
2023-07-19T07:22:36.083Z,48.71
2023-07-19T07:23:36.183Z,48.79
2023-07-19T07:24:36.150Z,48.79
2023-07-19T07:25:36.166Z,48.87
2023-07-19T07:26:36.229Z,48.90
2023-07-19T07:27:36.275Z,48.92
2023-07-19T07:28:36.322Z,48.96
2023-07-19T07:29:36.431Z,49.00
2023-07-19T07:30:36.413Z,49.07
2023-07-19T07:31:36.495Z,49.12
2023-07-19T07:32:36.594Z,49.11
2023-07-19T07:33:36.652Z,49.18
2023-07-19T07:34:36.640Z,49.19
2023-07-19T07:35:36.767Z,49.24
2023-07-19T07:36:36.757Z,49.35
2023-07-19T07:37:36.805Z,49.38
2023-07-19T07:38:36.875Z,49.44
2023-07-19T07:39:36.964Z,49.46
2023-07-19T07:40:36.994Z,49.49
2023-07-19T07:41:37.091Z,49.49
2023-07-19T07:42:37.125Z,49.57
2023-07-19T07:43:37.223Z,49.58
2023-07-19T07:44:37.240Z,49.56
2023-07-19T07:45:37.286Z,49.61
2023-07-19T07:46:37.470Z,49.62
2023-07-19T07:47:37.434Z,49.62
2023-07-19T07:48:37.502Z,49.67
2023-07-19T07:49:37.527Z,49.70
2023-07-19T07:50:37.653Z,49.69
2023-07-19T07:51:37.665Z,49.69
2023-07-19T07:52:37.739Z,49.70
2023-07-19T07:53:37.843Z,49.69
2023-07-19T07:54:37.866Z,49.70
2023-07-19T07:55:37.906Z,49.69
2023-07-19T07:56:37.953Z,49.74
2023-07-19T07:57:38.049Z,49.67
2023-07-19T07:58:38.103Z,49.66
2023-07-19T07:59:38.140Z,49.60
2023-07-19T08:00:38.237Z,49.59
2023-07-19T08:01:38.282Z,49.50
2023-07-19T08:02:38.467Z,49.44
2023-07-19T08:03:38.480Z,49.45
2023-07-19T08:04:38.444Z,49.37
2023-07-19T08:05:38.473Z,49.42
2023-07-19T08:06:38.509Z,49.43
2023-07-19T08:07:38.569Z,49.21
2023-07-19T08:08:38.583Z,48.98
2023-07-19T08:09:38.690Z,48.85
2023-07-19T08:10:38.641Z,48.86
2023-07-19T08:11:38.672Z,48.84
2023-07-19T08:12:38.716Z,48.70
2023-07-19T08:13:38.725Z,48.52
2023-07-19T08:14:38.741Z,48.33
2023-07-19T08:15:38.749Z,48.12
2023-07-19T08:16:38.787Z,48.02
2023-07-19T08:17:38.812Z,48.02
2023-07-19T08:18:38.805Z,47.96
2023-07-19T08:19:38.871Z,47.97
2023-07-19T08:20:38.819Z,47.77
2023-07-19T08:21:38.990Z,47.63
2023-07-19T08:22:38.854Z,47.57
2023-07-19T08:23:38.846Z,47.26
2023-07-19T08:24:38.843Z,47.15
2023-07-19T08:25:38.836Z,46.99
2023-07-19T08:26:38.833Z,46.99
2023-07-19T08:27:38.847Z,47.02
2023-07-19T08:28:38.829Z,46.94
2023-07-19T08:29:38.904Z,46.91
2023-07-19T08:30:38.852Z,46.95
2023-07-19T08:31:38.827Z,47.08
2023-07-19T08:32:38.910Z,47.25
2023-07-19T08:33:38.861Z,47.34
2023-07-19T08:34:38.881Z,47.51
2023-07-19T08:35:38.858Z,47.61
2023-07-19T08:36:38.881Z,47.71
2023-07-19T08:37:38.886Z,47.88
2023-07-19T08:38:38.892Z,48.02
2023-07-19T08:39:38.912Z,48.17
2023-07-19T08:40:38.928Z,48.20
2023-07-19T08:41:38.919Z,48.26
2023-07-19T08:42:38.985Z,48.35
2023-07-19T08:43:38.977Z,48.35
2023-07-19T08:44:38.964Z,48.45
2023-07-19T08:45:38.972Z,48.45
2023-07-19T08:46:39.017Z,48.50
2023-07-19T08:47:39.015Z,48.51
2023-07-19T08:48:39.028Z,48.48
2023-07-19T08:49:39.040Z,48.50
2023-07-19T08:50:39.078Z,48.39
2023-07-19T08:51:39.088Z,48.38
2023-07-19T08:52:39.102Z,48.42
2023-07-19T08:53:39.126Z,48.42
2023-07-19T08:54:39.144Z,48.44
2023-07-19T08:55:39.155Z,48.40
2023-07-19T08:56:39.166Z,48.42
2023-07-19T08:57:39.226Z,48.47
2023-07-19T08:58:39.287Z,48.46
2023-07-19T08:59:39.232Z,48.50
2023-07-19T09:00:39.249Z,48.53
2023-07-19T09:01:39.319Z,48.53
2023-07-19T09:02:39.350Z,48.56
2023-07-19T09:03:39.330Z,48.57
2023-07-19T09:04:39.405Z,48.61
2023-07-19T09:05:39.374Z,48.65
2023-07-19T09:06:39.418Z,48.67
2023-07-19T09:07:39.432Z,48.68
2023-07-19T09:08:39.452Z,48.72
2023-07-19T09:09:39.483Z,48.71
2023-07-19T09:10:39.550Z,48.71
2023-07-19T09:11:39.510Z,48.70
2023-07-19T09:12:39.611Z,48.68
2023-07-19T09:13:40.140Z,48.66
2023-07-19T09:14:39.581Z,48.63
2023-07-19T09:15:39.601Z,48.62
2023-07-19T09:16:39.606Z,48.56
2023-07-19T09:17:39.749Z,48.40
2023-07-19T09:18:40.259Z,48.30
2023-07-19T09:19:39.688Z,48.26
2023-07-19T09:20:39.698Z,48.28
2023-07-19T09:21:39.697Z,48.33
2023-07-19T09:22:39.741Z,48.38
2023-07-19T09:23:39.760Z,48.30
2023-07-19T09:24:39.757Z,48.07
2023-07-19T09:25:39.775Z,47.83
2023-07-19T09:26:39.744Z,47.58
2023-07-19T09:27:39.762Z,47.62
2023-07-19T09:28:39.781Z,47.66
2023-07-19T09:29:39.802Z,47.62
2023-07-19T09:30:39.779Z,47.58
2023-07-19T09:31:39.812Z,47.51
2023-07-19T09:32:39.820Z,47.44
2023-07-19T09:33:39.771Z,47.47
2023-07-19T09:34:39.800Z,47.48
2023-07-19T09:35:39.782Z,47.44
2023-07-19T09:36:39.787Z,47.33
2023-07-19T09:37:39.752Z,47.35
2023-07-19T09:38:39.783Z,47.32
2023-07-19T09:39:39.769Z,47.45
2023-07-19T09:40:39.744Z,47.45
2023-07-19T09:41:39.758Z,47.54
2023-07-19T09:42:39.740Z,47.66
2023-07-19T09:43:39.733Z,47.63
2023-07-19T09:44:39.758Z,47.61
2023-07-19T09:45:39.744Z,47.59
2023-07-19T09:46:39.758Z,47.54
2023-07-19T09:47:39.809Z,47.40
2023-07-19T09:48:39.871Z,47.28
2023-07-19T09:49:39.925Z,47.22
2023-07-19T09:50:39.990Z,47.18
2023-07-19T09:51:40.040Z,47.21
2023-07-19T09:52:40.093Z,47.32
2023-07-19T09:53:40.144Z,47.45
2023-07-19T09:54:40.234Z,47.50
2023-07-19T09:55:40.198Z,47.46
2023-07-19T09:56:40.265Z,47.38
2023-07-19T09:57:40.273Z,47.42
2023-07-19T09:58:40.309Z,47.46
2023-07-19T09:59:40.372Z,47.45
2023-07-19T10:00:40.384Z,47.30
2023-07-19T10:01:40.471Z,47.18
2023-07-19T10:02:40.549Z,47.03
2023-07-19T10:03:40.556Z,46.96
2023-07-19T10:04:40.614Z,46.84
2023-07-19T10:05:40.699Z,47.06
2023-07-19T10:06:40.700Z,47.39
2023-07-19T10:08:40.754Z,47.77
2023-07-19T10:09:40.708Z,47.86
2023-07-19T10:10:40.750Z,48.02
2023-07-19T10:11:40.696Z,48.15
2023-07-19T10:12:40.700Z,48.25
2023-07-19T10:13:40.725Z,48.36
2023-07-19T10:14:40.869Z,48.52
2023-07-19T10:15:40.871Z,48.63
2023-07-19T10:16:40.874Z,48.72
2023-07-19T10:17:41.001Z,48.74
2023-07-19T10:18:40.867Z,48.77
2023-07-19T10:19:40.896Z,48.86
2023-07-19T10:20:40.872Z,48.86
2023-07-19T10:21:40.869Z,48.78
2023-07-19T10:22:40.936Z,48.78
2023-07-19T10:23:40.923Z,48.82
2023-07-19T10:24:40.925Z,48.80
2023-07-19T10:25:40.961Z,48.82
2023-07-19T10:26:40.953Z,48.88
2023-07-19T10:27:40.948Z,49.00
2023-07-19T10:28:40.981Z,48.93
2023-07-19T10:29:40.995Z,48.94
2023-07-19T10:30:41.114Z,49.04
2023-07-19T10:31:41.019Z,49.17
2023-07-19T10:32:41.066Z,49.11
2023-07-19T10:33:41.131Z,49.04
2023-07-19T10:34:44.782Z,49.07
2023-07-19T10:35:41.113Z,48.94
2023-07-19T10:36:41.049Z,48.85
2023-07-19T10:37:41.047Z,48.81
2023-07-19T10:38:41.032Z,48.68
2023-07-19T10:39:41.032Z,48.56
2023-07-19T10:40:41.039Z,48.39
2023-07-19T10:41:41.006Z,48.23
2023-07-19T10:42:41.033Z,48.14
2023-07-19T10:44:40.992Z,48.00
2023-07-19T10:45:41.091Z,47.81
2023-07-19T10:46:40.997Z,47.66
2023-07-19T10:47:40.964Z,47.67
2023-07-19T10:48:42.454Z,47.62
2023-07-19T10:49:40.956Z,47.58
2023-07-19T10:50:40.972Z,47.63
2023-07-19T10:51:40.936Z,47.62
2023-07-19T10:52:40.920Z,47.48
2023-07-19T10:53:40.924Z,47.43
2023-07-19T10:54:51.252Z,47.53
2023-07-19T10:56:41.904Z,47.77
2023-07-19T10:57:40.921Z,47.84
2023-07-19T10:58:40.907Z,47.81
2023-07-19T10:59:40.878Z,47.74
2023-07-19T11:00:40.860Z,47.76
2023-07-19T11:01:41.332Z,47.84
2023-07-19T11:02:40.941Z,47.96
2023-07-19T11:03:40.896Z,48.05
2023-07-19T11:04:40.835Z,48.06
2023-07-19T11:05:40.840Z,48.05
2023-07-19T11:06:41.271Z,48.08
2023-07-19T11:07:40.861Z,48.10
2023-07-19T11:08:40.804Z,48.00
2023-07-19T11:09:40.815Z,47.88
2023-07-19T11:10:40.829Z,47.84
2023-07-19T11:11:40.848Z,47.84
2023-07-19T11:12:40.808Z,47.80
2023-07-19T11:13:40.818Z,47.80
2023-07-19T11:14:40.804Z,47.85
2023-07-19T11:15:40.830Z,47.92
2023-07-19T11:16:40.937Z,47.95
2023-07-19T11:17:40.769Z,47.95
2023-07-19T11:18:40.792Z,47.87
2023-07-19T11:19:40.769Z,47.80
2023-07-19T11:20:40.812Z,47.81
2023-07-19T11:21:40.737Z,47.73
2023-07-19T11:22:40.808Z,47.73
2023-07-19T11:23:40.732Z,47.65
2023-07-19T11:24:40.722Z,47.65
2023-07-19T11:25:40.762Z,47.65
2023-07-19T11:26:40.737Z,47.62
2023-07-19T11:27:40.689Z,47.58
2023-07-19T11:28:40.677Z,47.63
2023-07-19T11:29:40.687Z,47.67
2023-07-19T11:30:40.788Z,47.67
2023-07-19T11:31:40.748Z,47.59
2023-07-19T11:32:40.700Z,47.55
2023-07-19T11:33:40.664Z,47.46
2023-07-19T11:34:40.738Z,47.44
2023-07-19T11:35:40.686Z,47.44
2023-07-19T11:36:40.650Z,47.46
2023-07-19T11:37:40.622Z,47.45
2023-07-19T11:38:40.630Z,47.44
2023-07-19T11:39:40.596Z,47.44
2023-07-19T11:40:40.625Z,47.46
2023-07-19T11:41:40.588Z,47.47
2023-07-19T11:42:40.664Z,47.49
2023-07-19T11:43:40.591Z,47.47
2023-07-19T11:44:40.601Z,47.40
2023-07-19T11:45:40.566Z,47.33
2023-07-19T11:46:40.597Z,47.34
2023-07-19T11:47:40.561Z,47.37
2023-07-19T11:48:40.569Z,47.43
2023-07-19T11:49:40.573Z,47.46
2023-07-19T11:50:40.536Z,47.44
2023-07-19T11:51:40.533Z,47.47
2023-07-19T11:52:40.533Z,47.45
2023-07-19T11:53:40.528Z,47.43
2023-07-19T11:54:40.502Z,47.38
2023-07-19T11:55:40.504Z,47.31
2023-07-19T11:56:40.532Z,47.32
2023-07-19T11:57:40.490Z,47.32
2023-07-19T11:58:45.879Z,47.33
2023-07-19T11:59:41.553Z,47.35
2023-07-19T12:00:40.537Z,47.28
2023-07-19T12:01:40.473Z,47.29
2023-07-19T12:02:40.534Z,47.28
2023-07-19T12:03:40.463Z,47.32
2023-07-19T12:04:40.460Z,47.32
2023-07-19T12:05:40.428Z,47.37
2023-07-19T12:06:40.424Z,47.42
2023-07-19T12:07:40.422Z,47.44
2023-07-19T12:08:40.445Z,47.37
2023-07-19T12:09:40.408Z,47.40
2023-07-19T12:10:40.405Z,47.38
2023-07-19T12:11:40.404Z,47.22
2023-07-19T12:12:40.397Z,47.03
2023-07-19T12:13:40.371Z,46.99
2023-07-19T12:14:40.374Z,46.92
2023-07-19T12:15:40.385Z,46.85
2023-07-19T12:16:40.454Z,46.73
2023-07-19T12:17:40.366Z,46.64
2023-07-19T12:18:40.373Z,46.53
2023-07-19T12:19:40.359Z,46.41
2023-07-19T12:20:40.375Z,46.35
2023-07-19T12:21:40.354Z,46.37
2023-07-19T12:22:40.381Z,46.40
2023-07-19T12:24:40.294Z,46.50
2023-07-19T12:25:40.299Z,46.48
2023-07-19T12:26:40.319Z,46.35
2023-07-19T12:27:40.284Z,46.31
2023-07-19T12:28:40.270Z,46.29
2023-07-19T12:29:53.047Z,46.20
2023-07-19T12:30:41.289Z,46.05
2023-07-19T12:31:40.289Z,45.83
2023-07-19T12:32:40.298Z,45.88
2023-07-19T12:33:40.278Z,45.90
2023-07-19T12:34:40.261Z,45.85
2023-07-19T12:35:40.239Z,45.85
2023-07-19T12:36:40.211Z,45.83
2023-07-19T12:37:40.214Z,45.86
2023-07-19T12:38:40.210Z,45.91
2023-07-19T12:39:40.203Z,45.96
2023-07-19T12:40:40.201Z,46.04
2023-07-19T12:41:40.244Z,45.98
2023-07-19T12:42:40.182Z,45.95
2023-07-19T12:43:40.203Z,45.89
2023-07-19T12:44:40.171Z,45.85
2023-07-19T12:45:40.230Z,45.86
2023-07-19T12:46:40.259Z,45.93
2023-07-19T12:47:40.267Z,45.99
2023-07-19T12:48:40.262Z,46.03
2023-07-19T12:49:40.290Z,46.07
2023-07-19T12:50:40.316Z,46.15
2023-07-19T12:51:40.332Z,46.22
2023-07-19T12:52:51.074Z,46.31
2023-07-19T12:53:41.318Z,46.43
2023-07-19T12:54:40.331Z,46.51
2023-07-19T12:55:40.304Z,46.61
2023-07-19T12:56:40.340Z,46.66